Flight Track Log - Related Links

Times and Time Zones

All times are in EDT time to prevent confusion due to time zone crossing. See the N33819 flight status page for this flight to view local times or setup timezone preferences in your user account.

Time Position Orientation Groundspeed Altitude Reporting Facility
EDT Latitude Longitude Course Direction KTS MPH feet Rate Location/Type
Sun 12:47:08 AM 37.3325 -89.5406 46° Northeast 138 159 3,800  Level Kansas City Center
Sun 12:48:09 AM 37.3594 -89.5058 46° Northeast 139 160 4,600 744 Climbing Kansas City Center
Sun 12:49:09 AM 37.3894 -89.4811 33° Northeast 135 155 5,300 650 Climbing Kansas City Center
Sun 12:50:09 AM 37.4233 -89.4611 25° Northeast 134 154 5,900 550 Climbing Kansas City Center
Sun 12:51:09 AM 37.4606 -89.4372 27° Northeast 141 162 6,400 550 Climbing Kansas City Center
Sun 12:52:09 AM 37.4961 -89.4144 27° Northeast 143 165 7,000 298 Climbing Kansas City Center
Sun 12:53:10 AM 37.5336 -89.3914 26° Northeast 145 167 7,000  Level Kansas City Center
Sun 12:54:10 AM 37.5747 -89.3650 27° Northeast 154 177 7,000  Level Kansas City Center
Sun 12:55:10 AM 37.6150 -89.3411 25° Northeast 159 183 7,000  Level Kansas City Center
Sun 12:56:10 AM 37.6547 -89.3189 24° Northeast 158 182 7,000  Level Kansas City Center
Sun 12:57:10 AM 37.6944 -89.2914 29° Northeast 159 183 7,000  Level Kansas City Center
Sun 12:58:11 AM 37.7344 -89.2664 26° Northeast 160 184 7,000  Level Kansas City Center
Sun 12:59:14 AM 37.7744 -89.2436 24° Northeast 159 183 7,000  Level Kansas City Center
Sun 01:00:38 AM 37.8217 -89.2150 26° Northeast 157 181 7,000  Level Kansas City Center
Sun 01:01:38 AM 37.8722 -89.1850 25° Northeast 162 186 7,000  Level Kansas City Center
Sun 01:02:38 AM 37.9108 -89.1617 25° Northeast 156 180 7,000  Level Kansas City Center
Sun 01:03:38 AM 37.9519 -89.1350 27° Northeast 163 188 7,000  Level Kansas City Center
Sun 01:04:38 AM 37.9917 -89.1106 26° Northeast 161 185 7,000  Level Kansas City Center
Sun 01:05:39 AM 38.0317 -89.0850 27° Northeast 161 185 7,000  Level Kansas City Center
Sun 01:06:39 AM 38.0717 -89.0606 26° Northeast 160 184 7,000 -50 Level Kansas City Center
Sun 01:07:39 AM 38.1089 -89.0378 26° Northeast 160 184 6,900 -50 Descending Kansas City Center
Sun 01:08:39 AM 38.1486 -89.0114 28° Northeast 161 185 6,900  Level Kansas City Center
Sun 01:09:39 AM 38.1883 -88.9842 28° Northeast 163 188 6,900  Level Kansas City Center
Sun 01:10:39 AM 38.2250 -88.9592 28° Northeast 156 180 6,900  Level Kansas City Center
Sun 01:11:39 AM 38.2631 -88.9339 28° Northeast 153 176 6,900  Level Kansas City Center
Sun 01:12:40 AM 38.3022 -88.9092 26° Northeast 157 181 6,900  Level Kansas City Center
Sun 01:13:40 AM 38.3397 -88.8853 27° Northeast 155 178 6,900  Level Kansas City Center
Sun 01:14:40 AM 38.3814 -88.8578 27° Northeast 148 170 6,900  Level Kansas City Center
Sun 01:15:40 AM 38.4203 -88.8342 25° Northeast 153 176 6,900  Level Kansas City Center
Sun 01:16:40 AM 38.4586 -88.8097 27° Northeast 154 177 6,900  Level Kansas City Center
Sun 01:17:40 AM 38.4964 -88.7861 26° Northeast 152 175 6,900  Level Kansas City Center
Sun 01:18:40 AM 38.5364 -88.7622 25° Northeast 158 182 6,900  Level Kansas City Center
Sun 01:19:41 AM 38.5753 -88.7375 26° Northeast 156 180 6,900  Level Kansas City Center
Sun 01:20:41 AM 38.6072 -88.7156 28° Northeast 154 177 6,900  Level Kansas City Center
Sun 01:21:41 AM 38.6461 -88.6897 27° Northeast 156 180 6,900  Level Kansas City Center
Sun 01:22:41 AM 38.6828 -88.6636 29° Northeast 154 177 6,900  Level Kansas City Center
Sun 01:23:41 AM 38.7294 -88.6339 26° Northeast 158 182 6,900  Level Kansas City Center
Sun 01:24:41 AM 38.7686 -88.6078 27° Northeast 158 182 6,900  Level Kansas City Center
Sun 01:25:42 AM 38.8064 -88.5831 27° Northeast 154 177 6,900  Level Kansas City Center
Sun 01:26:42 AM 38.8450 -88.5569 28° Northeast 155 178 6,900  Level Kansas City Center
Sun 01:27:42 AM 38.8853 -88.5300 28° Northeast 159 183 6,900  Level Kansas City Center
Sun 01:28:42 AM 38.9244 -88.5044 27° Northeast 158 182 6,900  Level Kansas City Center
Sun 01:29:42 AM 38.9544 -88.4839 28° Northeast 157 181 6,900  Level Kansas City Center
Sun 01:30:42 AM 38.9933 -88.4578 28° Northeast 156 180 6,900  Level Kansas City Center
Sun 01:31:42 AM 39.0333 -88.4303 28° Northeast 158 182 6,900  Level Kansas City Center
Sun 01:32:43 AM 39.0722 -88.4039 28° Northeast 158 182 6,900  Level Kansas City Center
Sun 01:33:43 AM 39.1119 -88.3750 29° Northeast 159 183 6,900  Level Kansas City Center
Sun 01:34:43 AM 39.1508 -88.3469 29° Northeast 160 184 6,900  Level Kansas City Center
Sun 01:35:43 AM 39.1892 -88.3211 28° Northeast 157 181 6,900  Level Kansas City Center
Sun 01:36:43 AM 39.2278 -88.2944 28° Northeast 156 180 6,900  Level Kansas City Center
Sun 01:37:43 AM 39.2675 -88.2678 27° Northeast 159 183 6,900  Level Kansas City Center
Sun 01:38:43 AM 39.3067 -88.2422 27° Northeast 157 181 6,900  Level Kansas City Center
Sun 01:39:44 AM 39.3444 -88.2164 28° Northeast 154 177 6,900  Level Kansas City Center
Sun 01:40:44 AM 39.3864 -88.1867 29° Northeast 158 182 6,900  Level Kansas City Center
Sun 01:41:44 AM 39.4233 -88.1606 29° Northeast 160 184 6,900  Level Kansas City Center
Sun 01:42:44 AM 39.4597 -88.1356 28° Northeast 155 178 6,900  Level Kansas City Center
Sun 01:43:44 AM 39.4994 -88.1047 31° Northeast 157 181 6,900  Level Kansas City Center
Sun 01:44:44 AM 39.5381 -88.0778 28° Northeast 158 182 6,900  Level Kansas City Center
Sun 01:45:45 AM 39.5775 -88.0544 25° Northeast 159 183 6,900  Level Kansas City Center
Sun 01:46:45 AM 39.6169 -88.0261 29° Northeast 160 184 6,900  Level Kansas City Center
Sun 01:47:45 AM 39.6553 -87.9989 29° Northeast 160 184 6,900  Level Kansas City Center
Sun 01:48:45 AM 39.6944 -87.9717 28° Northeast 158 182 6,900  Level Kansas City Center
Sun 01:49:45 AM 39.7331 -87.9447 28° Northeast 158 182 6,900  Level Kansas City Center
Sun 01:50:45 AM 39.7714 -87.9158 30° Northeast 159 183 6,900  Level Kansas City Center
Sun 01:51:45 AM 39.8108 -87.8886 28° Northeast 160 184 6,900  Level Kansas City Center
Sun 01:52:46 AM 39.8486 -87.8608 29° Northeast 157 181 6,900  Level Kansas City Center

Login

Don't have an account? Register now (free) for customized features, flight alerts, and more!